sensor_id;sensor_type;location;lat;lon;timestamp;P1;durP1;ratioP1;P2;durP2;ratioP2
12888;SDS011;56848;49.896;11.424;2022-07-15T04:00:58;3.40;;;3.10;;
12888;SDS011;56848;49.896;11.424;2022-07-15T04:03:24;2.60;;;2.40;;
12888;SDS011;56848;49.896;11.424;2022-07-15T04:05:49;2.73;;;2.53;;
12888;SDS011;56848;49.896;11.424;2022-07-15T04:08:15;2.13;;;2.03;;
12888;SDS011;56848;49.896;11.424;2022-07-15T04:10:40;6.33;;;1.90;;
12888;SDS011;56848;49.896;11.424;2022-07-15T04:13:06;2.00;;;1.90;;
12888;SDS011;56848;49.896;11.424;2022-07-15T04:18:03;2.07;;;1.97;;
12888;SDS011;56848;49.896;11.424;2022-07-15T04:20:28;2.23;;;2.13;;
12888;SDS011;56848;49.896;11.424;2022-07-15T04:22:54;6.23;;;2.50;;
12888;SDS011;56848;49.896;11.424;2022-07-15T04:25:20;2.20;;;2.10;;
12888;SDS011;56848;49.896;11.424;2022-07-15T04:27:46;5.83;;;2.70;;
12888;SDS011;56848;49.896;11.424;2022-07-15T04:30:13;3.77;;;2.87;;
12888;SDS011;56848;49.896;11.424;2022-07-15T04:32:39;3.47;;;2.40;;
12888;SDS011;56848;49.896;11.424;2022-07-15T04:35:05;2.87;;;2.37;;
12888;SDS011;56848;49.896;11.424;2022-07-15T04:37:32;2.70;;;2.50;;
12888;SDS011;56848;49.896;11.424;2022-07-15T04:39:57;2.77;;;2.50;;
12888;SDS011;56848;49.896;11.424;2022-07-15T04:42:23;4.13;;;2.43;;
12888;SDS011;56848;49.896;11.424;2022-07-15T04:44:49;4.60;;;2.43;;
12888;SDS011;56848;49.896;11.424;2022-07-15T04:47:15;3.53;;;2.30;;
12888;SDS011;56848;49.896;11.424;2022-07-15T04:49:41;4.47;;;2.50;;
12888;SDS011;56848;49.896;11.424;2022-07-15T04:52:26;3.10;;;2.73;;
12888;SDS011;56848;49.896;11.424;2022-07-15T04:54:53;2.10;;;2.00;;
12888;SDS011;56848;49.896;11.424;2022-07-15T04:57:19;8.63;;;2.63;;
12888;SDS011;56848;49.896;11.424;2022-07-15T04:59:44;8.10;;;2.80;;
12888;SDS011;56848;49.896;11.424;2022-07-15T05:02:10;6.13;;;2.97;;
12888;SDS011;56848;49.896;11.424;2022-07-15T05:04:36;3.93;;;2.40;;
12888;SDS011;56848;49.896;11.424;2022-07-15T05:07:01;8.83;;;2.50;;
12888;SDS011;56848;49.896;11.424;2022-07-15T05:09:27;4.13;;;2.50;;
12888;SDS011;56848;49.896;11.424;2022-07-15T05:11:53;4.10;;;2.50;;
12888;SDS011;56848;49.896;11.424;2022-07-15T05:14:18;3.17;;;2.33;;
12888;SDS011;56848;49.896;11.424;2022-07-15T05:16:44;2.90;;;2.60;;
12888;SDS011;56848;49.896;11.424;2022-07-15T05:19:11;2.57;;;2.47;;
12888;SDS011;56848;49.896;11.424;2022-07-15T05:21:36;2.83;;;2.63;;
12888;SDS011;56848;49.896;11.424;2022-07-15T05:24:02;7.10;;;3.90;;
12888;SDS011;56848;49.896;11.424;2022-07-15T05:26:28;3.33;;;2.60;;
12888;SDS011;56848;49.896;11.424;2022-07-15T05:28:54;6.57;;;3.60;;
12888;SDS011;56848;49.896;11.424;2022-07-15T05:31:19;4.70;;;3.30;;
12888;SDS011;56848;49.896;11.424;2022-07-15T05:33:45;6.07;;;3.00;;
12888;SDS011;56848;49.896;11.424;2022-07-15T05:36:11;9.80;;;3.57;;
12888;SDS011;56848;49.896;11.424;2022-07-15T05:38:38;5.07;;;3.23;;
12888;SDS011;56848;49.896;11.424;2022-07-15T05:41:04;13.03;;;3.80;;
12888;SDS011;56848;49.896;11.424;2022-07-15T05:43:29;6.17;;;3.97;;
12888;SDS011;56848;49.896;11.424;2022-07-15T05:45:55;9.93;;;4.23;;
12888;SDS011;56848;49.896;11.424;2022-07-15T05:48:21;9.73;;;4.03;;
12888;SDS011;56848;49.896;11.424;2022-07-15T05:50:47;9.23;;;4.30;;
12888;SDS011;56848;49.896;11.424;2022-07-15T05:53:12;3.90;;;3.10;;
12888;SDS011;56848;49.896;11.424;2022-07-15T05:55:39;6.83;;;3.50;;
12888;SDS011;56848;49.896;11.424;2022-07-15T05:58:08;3.30;;;2.93;;
12888;SDS011;56848;49.896;11.424;2022-07-15T06:00:35;6.47;;;3.60;;
12888;SDS011;56848;49.896;11.424;2022-07-15T06:03:02;10.70;;;4.30;;
12888;SDS011;56848;49.896;11.424;2022-07-15T06:05:28;8.83;;;3.60;;
12888;SDS011;56848;49.896;11.424;2022-07-15T06:07:54;3.70;;;3.33;;
12888;SDS011;56848;49.896;11.424;2022-07-15T06:10:20;8.30;;;3.43;;
12888;SDS011;56848;49.896;11.424;2022-07-15T06:12:46;4.00;;;3.20;;
12888;SDS011;56848;49.896;11.424;2022-07-15T06:15:12;9.83;;;3.03;;
12888;SDS011;56848;49.896;11.424;2022-07-15T06:17:37;6.87;;;3.20;;
12888;SDS011;56848;49.896;11.424;2022-07-15T06:20:04;3.17;;;2.87;;
12888;SDS011;56848;49.896;11.424;2022-07-15T06:22:31;3.20;;;3.00;;
12888;SDS011;56848;49.896;11.424;2022-07-15T06:24:57;6.90;;;3.20;;
12888;SDS011;56848;49.896;11.424;2022-07-15T06:27:22;4.90;;;3.43;;
12888;SDS011;56848;49.896;11.424;2022-07-15T06:29:49;4.23;;;3.27;;
12888;SDS011;56848;49.896;11.424;2022-07-15T06:32:14;2.80;;;2.60;;
12888;SDS011;56848;49.896;11.424;2022-07-15T06:34:40;6.03;;;3.03;;
12888;SDS011;56848;49.896;11.424;2022-07-15T06:37:06;10.70;;;3.20;;
12888;SDS011;56848;49.896;11.424;2022-07-15T06:39:32;6.57;;;2.70;;
12888;SDS011;56848;49.896;11.424;2022-07-15T06:41:59;8.10;;;2.90;;
12888;SDS011;56848;49.896;11.424;2022-07-15T06:44:25;2.90;;;2.70;;
12888;SDS011;56848;49.896;11.424;2022-07-15T06:46:51;6.27;;;3.53;;
12888;SDS011;56848;49.896;11.424;2022-07-15T06:49:17;8.30;;;2.63;;
12888;SDS011;56848;49.896;11.424;2022-07-15T06:51:43;17.13;;;2.67;;
12888;SDS011;56848;49.896;11.424;2022-07-15T06:54:09;5.53;;;2.60;;
12888;SDS011;56848;49.896;11.424;2022-07-15T06:56:34;6.00;;;2.93;;
12888;SDS011;56848;49.896;11.424;2022-07-15T06:59:00;10.17;;;2.67;;
12888;SDS011;56848;49.896;11.424;2022-07-15T07:01:26;6.03;;;2.40;;
12888;SDS011;56848;49.896;11.424;2022-07-15T07:03:51;11.13;;;2.40;;
12888;SDS011;56848;49.896;11.424;2022-07-15T07:06:17;5.17;;;2.60;;
12888;SDS011;56848;49.896;11.424;2022-07-15T07:08:43;4.83;;;2.33;;
12888;SDS011;56848;49.896;11.424;2022-07-15T07:11:11;8.77;;;2.90;;
12888;SDS011;56848;49.896;11.424;2022-07-15T07:13:37;6.17;;;1.80;;
12888;SDS011;56848;49.896;11.424;2022-07-15T07:16:02;3.53;;;1.87;;
12888;SDS011;56848;49.896;11.424;2022-07-15T07:18:29;4.50;;;2.37;;
12888;SDS011;56848;49.896;11.424;2022-07-15T07:20:55;2.67;;;2.10;;
12888;SDS011;56848;49.896;11.424;2022-07-15T07:23:21;6.47;;;2.03;;
12888;SDS011;56848;49.896;11.424;2022-07-15T07:25:51;5.50;;;2.10;;
12888;SDS011;56848;49.896;11.424;2022-07-15T07:28:19;5.70;;;2.10;;
12888;SDS011;56848;49.896;11.424;2022-07-15T07:30:46;7.17;;;2.27;;
12888;SDS011;56848;49.896;11.424;2022-07-15T07:33:14;5.37;;;2.37;;
12888;SDS011;56848;49.896;11.424;2022-07-15T07:35:40;3.07;;;1.73;;
12888;SDS011;56848;49.896;11.424;2022-07-15T07:38:07;3.70;;;1.90;;
12888;SDS011;56848;49.896;11.424;2022-07-15T07:40:34;2.50;;;1.87;;
12888;SDS011;56848;49.896;11.424;2022-07-15T07:43:00;5.50;;;1.87;;
12888;SDS011;56848;49.896;11.424;2022-07-15T07:45:25;3.33;;;2.00;;
12888;SDS011;56848;49.896;11.424;2022-07-15T07:47:53;4.30;;;2.23;;
12888;SDS011;56848;49.896;11.424;2022-07-15T07:50:20;3.77;;;1.80;;
12888;SDS011;56848;49.896;11.424;2022-07-15T07:52:45;2.07;;;1.70;;
12888;SDS011;56848;49.896;11.424;2022-07-15T07:55:11;3.80;;;1.57;;
12888;SDS011;56848;49.896;11.424;2022-07-15T07:57:46;4.47;;;1.70;;
12888;SDS011;56848;49.896;11.424;2022-07-15T08:00:16;3.90;;;1.67;;
12888;SDS011;56848;49.896;11.424;2022-07-15T08:02:43;1.97;;;1.60;;
12888;SDS011;56848;49.896;11.424;2022-07-15T08:05:10;5.03;;;2.20;;
12888;SDS011;56848;49.896;11.424;2022-07-15T08:07:36;5.40;;;1.90;;
12888;SDS011;56848;49.896;11.424;2022-07-15T08:10:02;4.57;;;1.67;;
12888;SDS011;56848;49.896;11.424;2022-07-15T08:12:29;7.20;;;1.83;;
12888;SDS011;56848;49.896;11.424;2022-07-15T08:14:54;4.90;;;1.70;;
12888;SDS011;56848;49.896;11.424;2022-07-15T08:17:21;6.87;;;1.80;;
12888;SDS011;56848;49.896;11.424;2022-07-15T08:19:47;2.40;;;1.80;;
12888;SDS011;56848;49.896;11.424;2022-07-15T08:22:13;2.43;;;1.80;;
12888;SDS011;56848;49.896;11.424;2022-07-15T08:24:39;5.33;;;1.97;;
12888;SDS011;56848;49.896;11.424;2022-07-15T08:27:05;4.27;;;2.10;;
12888;SDS011;56848;49.896;11.424;2022-07-15T08:29:30;15.73;;;2.07;;
12888;SDS011;56848;49.896;11.424;2022-07-15T08:31:56;4.10;;;1.73;;
12888;SDS011;56848;49.896;11.424;2022-07-15T08:34:22;2.53;;;1.70;;
12888;SDS011;56848;49.896;11.424;2022-07-15T08:36:47;1.70;;;1.60;;
12888;SDS011;56848;49.896;11.424;2022-07-15T08:39:13;4.80;;;1.73;;
12888;SDS011;56848;49.896;11.424;2022-07-15T08:41:40;17.13;;;1.87;;
12888;SDS011;56848;49.896;11.424;2022-07-15T08:44:06;8.00;;;1.80;;
12888;SDS011;56848;49.896;11.424;2022-07-15T08:46:33;5.07;;;1.53;;
12888;SDS011;56848;49.896;11.424;2022-07-15T08:49:06;6.83;;;1.80;;
12888;SDS011;56848;49.896;11.424;2022-07-15T08:51:36;7.80;;;1.60;;
12888;SDS011;56848;49.896;11.424;2022-07-15T08:54:06;6.43;;;1.83;;
12888;SDS011;56848;49.896;11.424;2022-07-15T08:56:32;1.70;;;1.40;;
12888;SDS011;56848;49.896;11.424;2022-07-15T08:59:02;19.13;;;5.60;;
12888;SDS011;56848;49.896;11.424;2022-07-15T09:01:30;7.83;;;1.77;;
12888;SDS011;56848;49.896;11.424;2022-07-15T09:03:57;2.53;;;1.73;;
12888;SDS011;56848;49.896;11.424;2022-07-15T09:06:33;3.53;;;1.63;;
12888;SDS011;56848;49.896;11.424;2022-07-15T09:11:54;8.13;;;1.90;;
12888;SDS011;56848;49.896;11.424;2022-07-15T09:14:23;8.17;;;2.00;;
12888;SDS011;56848;49.896;11.424;2022-07-15T09:22:25;2.17;;;1.73;;
12888;SDS011;56848;49.896;11.424;2022-07-15T09:25:03;4.97;;;1.87;;
12888;SDS011;56848;49.896;11.424;2022-07-15T09:27:32;6.83;;;1.70;;
12888;SDS011;56848;49.896;11.424;2022-07-15T09:30:12;2.37;;;1.40;;
12888;SDS011;56848;49.896;11.424;2022-07-15T09:33:06;9.47;;;1.60;;
12888;SDS011;56848;49.896;11.424;2022-07-15T09:36:20;4.00;;;1.50;;
12888;SDS011;56848;49.896;11.424;2022-07-15T09:41:23;2.80;;;1.77;;
12888;SDS011;56848;49.896;11.424;2022-07-15T09:43:58;11.77;;;1.90;;
12888;SDS011;56848;49.896;11.424;2022-07-15T09:46:26;2.67;;;1.50;;
12888;SDS011;56848;49.896;11.424;2022-07-15T09:51:53;3.73;;;1.70;;
12888;SDS011;56848;49.896;11.424;2022-07-15T09:54:24;1.60;;;1.43;;
12888;SDS011;56848;49.896;11.424;2022-07-15T09:56:53;1.40;;;1.30;;
12888;SDS011;56848;49.896;11.424;2022-07-15T09:59:19;9.00;;;1.93;;
12888;SDS011;56848;49.896;11.424;2022-07-15T10:01:45;2.07;;;1.87;;
12888;SDS011;56848;49.896;11.424;2022-07-15T10:04:14;4.00;;;1.93;;
12888;SDS011;56848;49.896;11.424;2022-07-15T10:06:41;2.17;;;1.57;;
12888;SDS011;56848;49.896;11.424;2022-07-15T10:09:07;3.30;;;1.70;;
12888;SDS011;56848;49.896;11.424;2022-07-15T10:11:35;2.13;;;1.50;;
12888;SDS011;56848;49.896;11.424;2022-07-15T10:23:13;1.90;;;1.30;;
12888;SDS011;56848;49.896;11.424;2022-07-15T10:26:00;3.23;;;1.60;;
12888;SDS011;56848;49.896;11.424;2022-07-15T10:28:43;4.03;;;1.80;;
12888;SDS011;56848;49.896;11.424;2022-07-15T10:31:21;3.17;;;1.80;;
12888;SDS011;56848;49.896;11.424;2022-07-15T10:39:15;2.97;;;1.97;;
12888;SDS011;56848;49.896;11.424;2022-07-15T10:44:18;7.70;;;1.73;;
12888;SDS011;56848;49.896;11.424;2022-07-15T10:46:44;5.13;;;2.10;;
12888;SDS011;56848;49.896;11.424;2022-07-15T10:54:01;6.00;;;2.10;;
12888;SDS011;56848;49.896;11.424;2022-07-15T11:01:34;3.30;;;1.90;;
12888;SDS011;56848;49.896;11.424;2022-07-15T11:04:20;3.23;;;1.70;;
12888;SDS011;56848;49.896;11.424;2022-07-15T11:12:17;12.20;;;2.13;;
12888;SDS011;56848;49.896;11.424;2022-07-15T11:17:28;3.40;;;2.10;;
12888;SDS011;56848;49.896;11.424;2022-07-15T11:20:10;6.03;;;2.30;;
12888;SDS011;56848;49.896;11.424;2022-07-15T11:22:37;3.13;;;2.23;;
12888;SDS011;56848;49.896;11.424;2022-07-15T11:25:06;2.70;;;2.00;;
12888;SDS011;56848;49.896;11.424;2022-07-15T11:27:40;5.50;;;2.63;;
12888;SDS011;56848;49.896;11.424;2022-07-15T11:30:06;3.50;;;1.87;;
12888;SDS011;56848;49.896;11.424;2022-07-15T11:32:33;3.23;;;1.73;;
12888;SDS011;56848;49.896;11.424;2022-07-15T11:34:59;4.33;;;2.00;;
12888;SDS011;56848;49.896;11.424;2022-07-15T11:37:31;3.57;;;1.70;;
12888;SDS011;56848;49.896;11.424;2022-07-15T11:40:14;7.20;;;2.33;;
12888;SDS011;56848;49.896;11.424;2022-07-15T11:43:01;2.30;;;2.10;;
12888;SDS011;56848;49.896;11.424;2022-07-15T11:45:47;6.97;;;2.00;;
12888;SDS011;56848;49.896;11.424;2022-07-15T11:48:13;3.10;;;1.87;;
12888;SDS011;56848;49.896;11.424;2022-07-15T11:50:56;6.77;;;2.20;;
12888;SDS011;56848;49.896;11.424;2022-07-15T11:53:23;3.00;;;2.03;;
12888;SDS011;56848;49.896;11.424;2022-07-15T11:55:58;3.73;;;2.20;;
12888;SDS011;56848;49.896;11.424;2022-07-15T11:58:28;4.30;;;2.50;;
12888;SDS011;56848;49.896;11.424;2022-07-15T12:01:01;6.43;;;2.10;;
12888;SDS011;56848;49.896;11.424;2022-07-15T12:03:41;3.53;;;2.10;;
12888;SDS011;56848;49.896;11.424;2022-07-15T12:08:50;7.80;;;2.20;;
12888;SDS011;56848;49.896;11.424;2022-07-15T12:13:47;2.53;;;1.90;;
12888;SDS011;56848;49.896;11.424;2022-07-15T12:16:20;4.10;;;2.10;;
12888;SDS011;56848;49.896;11.424;2022-07-15T12:18:50;11.53;;;2.20;;
12888;SDS011;56848;49.896;11.424;2022-07-15T12:21:19;1.83;;;1.50;;
12888;SDS011;56848;49.896;11.424;2022-07-15T12:26:25;4.20;;;1.70;;
12888;SDS011;56848;49.896;11.424;2022-07-15T12:28:54;5.37;;;2.43;;
12888;SDS011;56848;49.896;11.424;2022-07-15T12:31:25;5.37;;;2.50;;
12888;SDS011;56848;49.896;11.424;2022-07-15T12:33:55;5.23;;;2.03;;
12888;SDS011;56848;49.896;11.424;2022-07-15T12:36:23;2.23;;;2.00;;
12888;SDS011;56848;49.896;11.424;2022-07-15T12:39:01;4.40;;;1.83;;
12888;SDS011;56848;49.896;11.424;2022-07-15T12:41:38;7.40;;;1.83;;
12888;SDS011;56848;49.896;11.424;2022-07-15T12:44:05;2.27;;;1.70;;
12888;SDS011;56848;49.896;11.424;2022-07-15T12:46:47;3.43;;;1.80;;
12888;SDS011;56848;49.896;11.424;2022-07-15T12:49:40;9.63;;;2.00;;
12888;SDS011;56848;49.896;11.424;2022-07-15T12:52:20;8.93;;;2.40;;
12888;SDS011;56848;49.896;11.424;2022-07-15T12:55:11;1.63;;;1.53;;
12888;SDS011;56848;49.896;11.424;2022-07-15T12:57:41;2.93;;;2.10;;
12888;SDS011;56848;49.896;11.424;2022-07-15T13:05:38;8.33;;;1.87;;
12888;SDS011;56848;49.896;11.424;2022-07-15T13:08:09;1.60;;;1.50;;
12888;SDS011;56848;49.896;11.424;2022-07-15T13:10:40;4.67;;;1.70;;
12888;SDS011;56848;49.896;11.424;2022-07-15T13:13:08;4.00;;;2.07;;
12888;SDS011;56848;49.896;11.424;2022-07-15T13:15:34;3.43;;;1.60;;
12888;SDS011;56848;49.896;11.424;2022-07-15T13:18:01;4.57;;;2.03;;
12888;SDS011;56848;49.896;11.424;2022-07-15T13:20:26;2.47;;;2.00;;
12888;SDS011;56848;49.896;11.424;2022-07-15T13:22:53;11.43;;;2.43;;
12888;SDS011;56848;49.896;11.424;2022-07-15T13:25:20;10.97;;;2.10;;
12888;SDS011;56848;49.896;11.424;2022-07-15T13:27:46;3.57;;;1.60;;
12888;SDS011;56848;49.896;11.424;2022-07-15T13:30:12;3.33;;;1.80;;
12888;SDS011;56848;49.896;11.424;2022-07-15T13:32:38;2.90;;;1.73;;
12888;SDS011;56848;49.896;11.424;2022-07-15T13:35:05;3.97;;;1.70;;
12888;SDS011;56848;49.896;11.424;2022-07-15T13:37:31;2.83;;;1.90;;
12888;SDS011;56848;49.896;11.424;2022-07-15T13:39:57;3.03;;;1.70;;
12888;SDS011;56848;49.896;11.424;2022-07-15T13:42:23;8.83;;;2.00;;
12888;SDS011;56848;49.896;11.424;2022-07-15T13:44:53;2.10;;;1.90;;
12888;SDS011;56848;49.896;11.424;2022-07-15T13:47:20;3.97;;;1.73;;
12888;SDS011;56848;49.896;11.424;2022-07-15T13:49:45;2.13;;;1.70;;
12888;SDS011;56848;49.896;11.424;2022-07-15T13:52:30;4.10;;;1.80;;
12888;SDS011;56848;49.896;11.424;2022-07-15T13:54:56;7.53;;;1.80;;
12888;SDS011;56848;49.896;11.424;2022-07-15T13:57:22;3.30;;;1.40;;
12888;SDS011;56848;49.896;11.424;2022-07-15T13:59:48;4.73;;;1.97;;
12888;SDS011;56848;49.896;11.424;2022-07-15T14:02:13;5.27;;;1.70;;
12888;SDS011;56848;49.896;11.424;2022-07-15T14:04:39;6.03;;;1.73;;
12888;SDS011;56848;49.896;11.424;2022-07-15T14:07:05;2.67;;;1.53;;
12888;SDS011;56848;49.896;11.424;2022-07-15T14:09:31;3.00;;;1.93;;
12888;SDS011;56848;49.896;11.424;2022-07-15T14:11:57;3.00;;;2.23;;
12888;SDS011;56848;49.896;11.424;2022-07-15T14:14:23;11.10;;;1.70;;
12888;SDS011;56848;49.896;11.424;2022-07-15T14:16:49;5.80;;;1.80;;
12888;SDS011;56848;49.896;11.424;2022-07-15T14:19:15;2.30;;;1.53;;
12888;SDS011;56848;49.896;11.424;2022-07-15T14:21:41;1.60;;;1.50;;
12888;SDS011;56848;49.896;11.424;2022-07-15T14:24:06;2.93;;;2.63;;
12888;SDS011;56848;49.896;11.424;2022-07-15T14:26:32;4.50;;;2.00;;
12888;SDS011;56848;49.896;11.424;2022-07-15T14:28:58;6.60;;;2.20;;
12888;SDS011;56848;49.896;11.424;2022-07-15T14:31:23;4.20;;;2.00;;
12888;SDS011;56848;49.896;11.424;2022-07-15T14:33:49;3.00;;;1.87;;
12888;SDS011;56848;49.896;11.424;2022-07-15T14:36:15;3.03;;;1.50;;
12888;SDS011;56848;49.896;11.424;2022-07-15T14:38:41;2.90;;;1.50;;
12888;SDS011;56848;49.896;11.424;2022-07-15T14:41:06;1.80;;;1.70;;
12888;SDS011;56848;49.896;11.424;2022-07-15T14:43:33;4.50;;;2.07;;
12888;SDS011;56848;49.896;11.424;2022-07-15T14:45:59;2.43;;;1.67;;
12888;SDS011;56848;49.896;11.424;2022-07-15T14:48:25;2.43;;;1.80;;
12888;SDS011;56848;49.896;11.424;2022-07-15T14:50:52;7.13;;;2.00;;
12888;SDS011;56848;49.896;11.424;2022-07-15T14:53:19;2.27;;;1.80;;
12888;SDS011;56848;49.896;11.424;2022-07-15T14:55:45;7.80;;;1.90;;
12888;SDS011;56848;49.896;11.424;2022-07-15T14:58:11;3.10;;;1.70;;
12888;SDS011;56848;49.896;11.424;2022-07-15T15:00:39;2.83;;;1.83;;
12888;SDS011;56848;49.896;11.424;2022-07-15T15:03:05;2.50;;;1.53;;
12888;SDS011;56848;49.896;11.424;2022-07-15T15:05:30;2.00;;;1.63;;
12888;SDS011;56848;49.896;11.424;2022-07-15T15:07:56;5.70;;;2.00;;
12888;SDS011;56848;49.896;11.424;2022-07-15T15:10:22;2.40;;;1.83;;
12888;SDS011;56848;49.896;11.424;2022-07-15T15:12:48;1.83;;;1.73;;
12888;SDS011;56848;49.896;11.424;2022-07-15T15:15:14;1.80;;;1.70;;
12888;SDS011;56848;49.896;11.424;2022-07-15T15:17:40;6.43;;;1.80;;
12888;SDS011;56848;49.896;11.424;2022-07-15T15:20:06;3.27;;;1.87;;
12888;SDS011;56848;49.896;11.424;2022-07-15T15:22:33;5.20;;;2.20;;
12888;SDS011;56848;49.896;11.424;2022-07-15T15:24:59;5.60;;;1.57;;
12888;SDS011;56848;49.896;11.424;2022-07-15T15:27:26;4.03;;;1.73;;
12888;SDS011;56848;49.896;11.424;2022-07-15T15:29:51;1.80;;;1.70;;
12888;SDS011;56848;49.896;11.424;2022-07-15T15:32:17;2.17;;;1.50;;
12888;SDS011;56848;49.896;11.424;2022-07-15T15:34:43;3.97;;;1.90;;
12888;SDS011;56848;49.896;11.424;2022-07-15T15:37:10;2.70;;;1.70;;
12888;SDS011;56848;49.896;11.424;2022-07-15T15:39:36;6.00;;;1.73;;
12888;SDS011;56848;49.896;11.424;2022-07-15T15:42:06;5.30;;;1.60;;
12888;SDS011;56848;49.896;11.424;2022-07-15T15:44:33;3.50;;;1.87;;
12888;SDS011;56848;49.896;11.424;2022-07-15T15:46:59;2.00;;;1.60;;
12888;SDS011;56848;49.896;11.424;2022-07-15T15:49:25;2.33;;;1.87;;
12888;SDS011;56848;49.896;11.424;2022-07-15T15:51:51;3.20;;;2.23;;
12888;SDS011;56848;49.896;11.424;2022-07-15T15:54:16;2.50;;;1.80;;
12888;SDS011;56848;49.896;11.424;2022-07-15T15:56:42;6.57;;;2.33;;
12888;SDS011;56848;49.896;11.424;2022-07-15T15:59:08;6.57;;;2.10;;
12888;SDS011;56848;49.896;11.424;2022-07-15T16:01:34;3.90;;;1.97;;
12888;SDS011;56848;49.896;11.424;2022-07-15T16:03:59;1.87;;;1.70;;
12888;SDS011;56848;49.896;11.424;2022-07-15T16:06:25;4.77;;;2.00;;
12888;SDS011;56848;49.896;11.424;2022-07-15T16:08:51;2.83;;;1.80;;
12888;SDS011;56848;49.896;11.424;2022-07-15T16:11:17;4.30;;;2.00;;
12888;SDS011;56848;49.896;11.424;2022-07-15T16:13:43;2.27;;;1.77;;
12888;SDS011;56848;49.896;11.424;2022-07-15T16:16:09;1.90;;;1.80;;
12888;SDS011;56848;49.896;11.424;2022-07-15T16:18:34;2.30;;;2.10;;
12888;SDS011;56848;49.896;11.424;2022-07-15T16:21:00;3.40;;;1.73;;
12888;SDS011;56848;49.896;11.424;2022-07-15T16:23:25;3.30;;;2.00;;
12888;SDS011;56848;49.896;11.424;2022-07-15T16:25:51;2.97;;;1.80;;
12888;SDS011;56848;49.896;11.424;2022-07-15T16:28:17;3.40;;;1.73;;
12888;SDS011;56848;49.896;11.424;2022-07-15T16:30:44;2.23;;;1.80;;
12888;SDS011;56848;49.896;11.424;2022-07-15T16:33:11;2.03;;;1.87;;
12888;SDS011;56848;49.896;11.424;2022-07-15T16:35:37;2.67;;;2.10;;
12888;SDS011;56848;49.896;11.424;2022-07-15T16:38:06;2.33;;;2.10;;
12888;SDS011;56848;49.896;11.424;2022-07-15T16:40:32;2.90;;;2.10;;
12888;SDS011;56848;49.896;11.424;2022-07-15T16:42:58;2.37;;;2.10;;
12888;SDS011;56848;49.896;11.424;2022-07-15T16:45:25;3.40;;;1.90;;
12888;SDS011;56848;49.896;11.424;2022-07-15T16:47:51;2.53;;;2.33;;
12888;SDS011;56848;49.896;11.424;2022-07-15T16:50:17;3.63;;;2.23;;
12888;SDS011;56848;49.896;11.424;2022-07-15T16:52:42;2.90;;;2.10;;
12888;SDS011;56848;49.896;11.424;2022-07-15T16:55:08;7.20;;;2.20;;
12888;SDS011;56848;49.896;11.424;2022-07-15T16:57:35;6.37;;;2.10;;
12888;SDS011;56848;49.896;11.424;2022-07-15T17:00:01;2.90;;;2.10;;
12888;SDS011;56848;49.896;11.424;2022-07-15T17:02:29;3.13;;;1.80;;
12888;SDS011;56848;49.896;11.424;2022-07-15T17:04:55;5.33;;;2.27;;
12888;SDS011;56848;49.896;11.424;2022-07-15T17:07:20;3.10;;;1.80;;
12888;SDS011;56848;49.896;11.424;2022-07-15T17:09:46;1.93;;;1.83;;
12888;SDS011;56848;49.896;11.424;2022-07-15T17:12:11;3.07;;;2.17;;
12888;SDS011;56848;49.896;11.424;2022-07-15T17:14:37;1.90;;;1.70;;
12888;SDS011;56848;49.896;11.424;2022-07-15T17:17:03;2.53;;;2.00;;
12888;SDS011;56848;49.896;11.424;2022-07-15T17:19:29;5.70;;;2.07;;
12888;SDS011;56848;49.896;11.424;2022-07-15T17:21:55;2.00;;;1.80;;
12888;SDS011;56848;49.896;11.424;2022-07-15T17:24:21;3.40;;;2.10;;
12888;SDS011;56848;49.896;11.424;2022-07-15T17:26:47;2.20;;;2.00;;
12888;SDS011;56848;49.896;11.424;2022-07-15T17:29:13;3.37;;;1.77;;
12888;SDS011;56848;49.896;11.424;2022-07-15T17:31:39;3.00;;;1.90;;
12888;SDS011;56848;49.896;11.424;2022-07-15T17:34:05;5.07;;;1.80;;
12888;SDS011;56848;49.896;11.424;2022-07-15T17:36:31;2.53;;;1.90;;
12888;SDS011;56848;49.896;11.424;2022-07-15T17:38:58;2.13;;;1.93;;
12888;SDS011;56848;49.896;11.424;2022-07-15T17:41:24;2.93;;;2.00;;
12888;SDS011;56848;49.896;11.424;2022-07-15T17:43:50;2.17;;;1.90;;
12888;SDS011;56848;49.896;11.424;2022-07-15T17:46:16;5.80;;;2.40;;
12888;SDS011;56848;49.896;11.424;2022-07-15T17:48:42;2.40;;;1.80;;
12888;SDS011;56848;49.896;11.424;2022-07-15T17:51:07;7.53;;;1.90;;
12888;SDS011;56848;49.896;11.424;2022-07-15T17:53:33;4.43;;;2.10;;
12888;SDS011;56848;49.896;11.424;2022-07-15T17:55:59;3.20;;;2.20;;
12888;SDS011;56848;49.896;11.424;2022-07-15T17:58:25;3.00;;;2.10;;
12888;SDS011;56848;49.896;11.424;2022-07-15T18:00:51;2.23;;;2.03;;
12888;SDS011;56848;49.896;11.424;2022-07-15T18:03:17;3.00;;;2.30;;
12888;SDS011;56848;49.896;11.424;2022-07-15T18:05:44;4.70;;;1.93;;
12888;SDS011;56848;49.896;11.424;2022-07-15T18:08:12;1.93;;;1.80;;
12888;SDS011;56848;49.896;11.424;2022-07-15T18:10:39;2.13;;;2.03;;
12888;SDS011;56848;49.896;11.424;2022-07-15T18:13:06;6.23;;;2.10;;
12888;SDS011;56848;49.896;11.424;2022-07-15T18:15:32;3.40;;;2.07;;
12888;SDS011;56848;49.896;11.424;2022-07-15T18:17:58;3.70;;;2.10;;
12888;SDS011;56848;49.896;11.424;2022-07-15T18:20:24;2.63;;;2.07;;
12888;SDS011;56848;49.896;11.424;2022-07-15T18:22:50;6.43;;;2.40;;
12888;SDS011;56848;49.896;11.424;2022-07-15T18:25:15;5.10;;;2.00;;
12888;SDS011;56848;49.896;11.424;2022-07-15T18:27:41;6.23;;;2.67;;
12888;SDS011;56848;49.896;11.424;2022-07-15T18:30:07;2.30;;;2.10;;
12888;SDS011;56848;49.896;11.424;2022-07-15T18:32:32;2.23;;;1.90;;
12888;SDS011;56848;49.896;11.424;2022-07-15T18:34:58;2.83;;;2.00;;
12888;SDS011;56848;49.896;11.424;2022-07-15T18:37:24;2.90;;;2.10;;
12888;SDS011;56848;49.896;11.424;2022-07-15T18:39:50;2.80;;;2.10;;
12888;SDS011;56848;49.896;11.424;2022-07-15T18:42:15;3.57;;;1.97;;
12888;SDS011;56848;49.896;11.424;2022-07-15T18:44:41;4.53;;;2.30;;
12888;SDS011;56848;49.896;11.424;2022-07-15T18:47:06;3.43;;;2.10;;
12888;SDS011;56848;49.896;11.424;2022-07-15T18:49:32;3.10;;;2.10;;
12888;SDS011;56848;49.896;11.424;2022-07-15T18:51:58;4.93;;;2.57;;
12888;SDS011;56848;49.896;11.424;2022-07-15T18:54:23;2.30;;;2.10;;
12888;SDS011;56848;49.896;11.424;2022-07-15T18:56:49;3.67;;;2.23;;
12888;SDS011;56848;49.896;11.424;2022-07-15T18:59:14;2.43;;;2.13;;
12888;SDS011;56848;49.896;11.424;2022-07-15T19:01:41;9.80;;;2.37;;
12888;SDS011;56848;49.896;11.424;2022-07-15T19:04:07;2.40;;;2.00;;
12888;SDS011;56848;49.896;11.424;2022-07-15T19:06:33;3.50;;;2.30;;
12888;SDS011;56848;49.896;11.424;2022-07-15T19:08:59;5.07;;;2.33;;
12888;SDS011;56848;49.896;11.424;2022-07-15T19:11:24;2.83;;;2.23;;
12888;SDS011;56848;49.896;11.424;2022-07-15T19:13:50;2.23;;;2.07;;
12888;SDS011;56848;49.896;11.424;2022-07-15T19:16:16;4.40;;;2.27;;
12888;SDS011;56848;49.896;11.424;2022-07-15T19:18:43;2.80;;;2.60;;
12888;SDS011;56848;49.896;11.424;2022-07-15T19:21:09;2.40;;;2.20;;
12888;SDS011;56848;49.896;11.424;2022-07-15T19:23:34;2.77;;;2.50;;
12888;SDS011;56848;49.896;11.424;2022-07-15T19:26:00;8.37;;;2.50;;
12888;SDS011;56848;49.896;11.424;2022-07-15T19:28:26;5.20;;;2.60;;
12888;SDS011;56848;49.896;11.424;2022-07-15T19:30:52;3.53;;;2.40;;
12888;SDS011;56848;49.896;11.424;2022-07-15T19:33:18;7.10;;;2.50;;
12888;SDS011;56848;49.896;11.424;2022-07-15T19:35:44;3.97;;;2.70;;
12888;SDS011;56848;49.896;11.424;2022-07-15T19:38:10;6.23;;;2.03;;
12888;SDS011;56848;49.896;11.424;2022-07-15T19:40:36;5.87;;;2.57;;